sensor_id;sensor_type;location;lat;lon;timestamp;P1;durP1;ratioP1;P2;durP2;ratioP2
20525;SDS011;10421;49.142;9.232;2022-10-14T00:00:44;19.57;;;9.40;;
20525;SDS011;10421;49.142;9.232;2022-10-14T00:03:11;19.90;;;9.80;;
20525;SDS011;10421;49.142;9.232;2022-10-14T00:05:38;16.37;;;8.80;;
20525;SDS011;10421;49.142;9.232;2022-10-14T00:08:06;15.47;;;9.00;;
20525;SDS011;10421;49.142;9.232;2022-10-14T00:10:37;21.53;;;10.20;;
20525;SDS011;10421;49.142;9.232;2022-10-14T00:13:06;15.53;;;8.50;;
20525;SDS011;10421;49.142;9.232;2022-10-14T00:15:36;21.77;;;10.10;;
20525;SDS011;10421;49.142;9.232;2022-10-14T00:18:04;19.43;;;10.07;;
20525;SDS011;10421;49.142;9.232;2022-10-14T00:20:32;14.73;;;8.30;;
20525;SDS011;10421;49.142;9.232;2022-10-14T00:22:59;20.93;;;9.57;;
20525;SDS011;10421;49.142;9.232;2022-10-14T00:25:26;14.07;;;8.23;;
20525;SDS011;10421;49.142;9.232;2022-10-14T00:27:54;15.83;;;9.10;;
20525;SDS011;10421;49.142;9.232;2022-10-14T00:30:22;16.00;;;8.83;;
20525;SDS011;10421;49.142;9.232;2022-10-14T00:32:49;18.73;;;9.13;;
20525;SDS011;10421;49.142;9.232;2022-10-14T00:35:16;17.67;;;9.53;;
20525;SDS011;10421;49.142;9.232;2022-10-14T00:37:42;16.07;;;8.73;;
20525;SDS011;10421;49.142;9.232;2022-10-14T00:40:10;15.30;;;8.60;;
20525;SDS011;10421;49.142;9.232;2022-10-14T00:42:37;14.87;;;8.30;;
20525;SDS011;10421;49.142;9.232;2022-10-14T00:45:06;14.70;;;8.07;;
20525;SDS011;10421;49.142;9.232;2022-10-14T00:47:40;13.20;;;7.83;;
20525;SDS011;10421;49.142;9.232;2022-10-14T00:50:08;11.83;;;7.73;;
20525;SDS011;10421;49.142;9.232;2022-10-14T00:52:36;17.00;;;9.10;;
20525;SDS011;10421;49.142;9.232;2022-10-14T00:55:04;14.70;;;7.67;;
20525;SDS011;10421;49.142;9.232;2022-10-14T00:57:34;15.70;;;8.50;;
20525;SDS011;10421;49.142;9.232;2022-10-14T01:00:03;17.10;;;8.23;;
20525;SDS011;10421;49.142;9.232;2022-10-14T01:02:32;52.20;;;27.73;;
20525;SDS011;10421;49.142;9.232;2022-10-14T01:05:00;23.33;;;12.97;;
20525;SDS011;10421;49.142;9.232;2022-10-14T01:07:34;34.00;;;19.53;;
20525;SDS011;10421;49.142;9.232;2022-10-14T01:10:07;21.30;;;11.40;;
20525;SDS011;10421;49.142;9.232;2022-10-14T01:12:42;24.40;;;12.20;;
20525;SDS011;10421;49.142;9.232;2022-10-14T01:15:23;19.00;;;9.47;;
20525;SDS011;10421;49.142;9.232;2022-10-14T01:17:57;16.37;;;8.60;;
20525;SDS011;10421;49.142;9.232;2022-10-14T01:20:48;17.27;;;8.77;;
20525;SDS011;10421;49.142;9.232;2022-10-14T01:29:50;13.93;;;7.80;;
20525;SDS011;10421;49.142;9.232;2022-10-14T01:32:36;16.50;;;8.60;;
20525;SDS011;10421;49.142;9.232;2022-10-14T01:35:20;16.00;;;8.93;;
20525;SDS011;10421;49.142;9.232;2022-10-14T01:37:52;12.47;;;7.63;;
20525;SDS011;10421;49.142;9.232;2022-10-14T01:40:24;15.50;;;8.40;;
20525;SDS011;10421;49.142;9.232;2022-10-14T01:42:57;16.33;;;8.43;;
20525;SDS011;10421;49.142;9.232;2022-10-14T01:45:27;15.00;;;8.90;;
20525;SDS011;10421;49.142;9.232;2022-10-14T01:47:58;17.63;;;9.10;;
20525;SDS011;10421;49.142;9.232;2022-10-14T01:50:26;14.33;;;8.67;;
20525;SDS011;10421;49.142;9.232;2022-10-14T01:52:57;17.00;;;8.80;;
20525;SDS011;10421;49.142;9.232;2022-10-14T01:55:27;20.87;;;9.20;;
20525;SDS011;10421;49.142;9.232;2022-10-14T01:57:58;18.20;;;9.40;;
20525;SDS011;10421;49.142;9.232;2022-10-14T02:00:27;16.73;;;8.33;;
20525;SDS011;10421;49.142;9.232;2022-10-14T02:02:54;14.53;;;8.40;;
20525;SDS011;10421;49.142;9.232;2022-10-14T02:05:21;16.47;;;8.57;;
20525;SDS011;10421;49.142;9.232;2022-10-14T02:07:55;17.30;;;8.50;;
20525;SDS011;10421;49.142;9.232;2022-10-14T02:10:32;19.70;;;9.90;;
20525;SDS011;10421;49.142;9.232;2022-10-14T02:13:21;11.97;;;7.33;;
20525;SDS011;10421;49.142;9.232;2022-10-14T02:16:03;13.70;;;7.83;;
20525;SDS011;10421;49.142;9.232;2022-10-14T02:18:37;16.83;;;8.47;;
20525;SDS011;10421;49.142;9.232;2022-10-14T02:21:07;17.50;;;8.50;;
20525;SDS011;10421;49.142;9.232;2022-10-14T02:23:43;16.70;;;8.27;;
20525;SDS011;10421;49.142;9.232;2022-10-14T02:26:14;19.73;;;8.60;;
20525;SDS011;10421;49.142;9.232;2022-10-14T02:28:41;16.70;;;7.50;;
20525;SDS011;10421;49.142;9.232;2022-10-14T02:31:12;18.60;;;8.23;;
20525;SDS011;10421;49.142;9.232;2022-10-14T02:33:41;17.63;;;7.93;;
20525;SDS011;10421;49.142;9.232;2022-10-14T02:36:11;16.33;;;7.67;;
20525;SDS011;10421;49.142;9.232;2022-10-14T02:38:41;19.10;;;8.67;;
20525;SDS011;10421;49.142;9.232;2022-10-14T02:41:10;18.23;;;9.17;;
20525;SDS011;10421;49.142;9.232;2022-10-14T02:43:40;15.03;;;8.53;;
20525;SDS011;10421;49.142;9.232;2022-10-14T02:46:08;16.53;;;8.10;;
20525;SDS011;10421;49.142;9.232;2022-10-14T02:48:37;14.23;;;7.67;;
20525;SDS011;10421;49.142;9.232;2022-10-14T02:51:03;14.70;;;8.20;;
20525;SDS011;10421;49.142;9.232;2022-10-14T02:53:30;14.70;;;7.93;;
20525;SDS011;10421;49.142;9.232;2022-10-14T02:55:57;15.27;;;8.37;;
20525;SDS011;10421;49.142;9.232;2022-10-14T02:58:24;17.90;;;9.40;;
20525;SDS011;10421;49.142;9.232;2022-10-14T03:00:50;13.30;;;8.20;;
20525;SDS011;10421;49.142;9.232;2022-10-14T03:03:17;16.93;;;8.90;;
20525;SDS011;10421;49.142;9.232;2022-10-14T03:05:45;17.27;;;9.07;;
20525;SDS011;10421;49.142;9.232;2022-10-14T03:08:12;19.20;;;10.10;;
20525;SDS011;10421;49.142;9.232;2022-10-14T03:10:39;22.23;;;9.70;;
20525;SDS011;10421;49.142;9.232;2022-10-14T03:13:06;20.17;;;9.30;;
20525;SDS011;10421;49.142;9.232;2022-10-14T03:15:32;21.20;;;9.57;;
20525;SDS011;10421;49.142;9.232;2022-10-14T03:17:59;22.47;;;9.10;;
20525;SDS011;10421;49.142;9.232;2022-10-14T03:20:26;13.63;;;7.63;;
20525;SDS011;10421;49.142;9.232;2022-10-14T03:22:54;16.60;;;8.77;;
20525;SDS011;10421;49.142;9.232;2022-10-14T03:25:21;14.10;;;8.23;;
20525;SDS011;10421;49.142;9.232;2022-10-14T03:27:48;18.20;;;7.83;;
20525;SDS011;10421;49.142;9.232;2022-10-14T03:30:15;14.80;;;6.93;;
20525;SDS011;10421;49.142;9.232;2022-10-14T03:32:41;16.90;;;7.60;;
20525;SDS011;10421;49.142;9.232;2022-10-14T03:35:08;19.80;;;8.77;;
20525;SDS011;10421;49.142;9.232;2022-10-14T03:37:35;17.23;;;7.50;;
20525;SDS011;10421;49.142;9.232;2022-10-14T03:40:04;11.23;;;6.83;;
20525;SDS011;10421;49.142;9.232;2022-10-14T03:42:31;14.30;;;7.17;;
20525;SDS011;10421;49.142;9.232;2022-10-14T03:44:58;13.47;;;7.00;;
20525;SDS011;10421;49.142;9.232;2022-10-14T03:47:24;19.10;;;7.67;;
20525;SDS011;10421;49.142;9.232;2022-10-14T03:49:51;19.03;;;8.30;;
20525;SDS011;10421;49.142;9.232;2022-10-14T03:52:18;15.47;;;7.70;;
20525;SDS011;10421;49.142;9.232;2022-10-14T03:54:45;13.70;;;7.67;;
20525;SDS011;10421;49.142;9.232;2022-10-14T03:57:13;14.20;;;7.47;;
20525;SDS011;10421;49.142;9.232;2022-10-14T03:59:40;14.70;;;7.73;;
20525;SDS011;10421;49.142;9.232;2022-10-14T04:02:06;16.80;;;8.67;;
20525;SDS011;10421;49.142;9.232;2022-10-14T04:04:33;12.50;;;7.30;;
20525;SDS011;10421;49.142;9.232;2022-10-14T04:07:00;16.00;;;8.20;;
20525;SDS011;10421;49.142;9.232;2022-10-14T04:09:26;14.33;;;7.97;;
20525;SDS011;10421;49.142;9.232;2022-10-14T04:11:53;19.13;;;8.57;;
20525;SDS011;10421;49.142;9.232;2022-10-14T04:14:22;13.33;;;7.17;;
20525;SDS011;10421;49.142;9.232;2022-10-14T04:16:49;15.00;;;7.80;;
20525;SDS011;10421;49.142;9.232;2022-10-14T04:19:16;13.00;;;6.93;;
20525;SDS011;10421;49.142;9.232;2022-10-14T04:21:43;20.37;;;8.97;;
20525;SDS011;10421;49.142;9.232;2022-10-14T04:24:10;16.67;;;7.83;;
20525;SDS011;10421;49.142;9.232;2022-10-14T04:26:37;13.80;;;6.40;;
20525;SDS011;10421;49.142;9.232;2022-10-14T04:29:04;12.13;;;7.17;;
20525;SDS011;10421;49.142;9.232;2022-10-14T04:31:32;14.27;;;7.43;;
20525;SDS011;10421;49.142;9.232;2022-10-14T04:33:59;11.73;;;5.90;;
20525;SDS011;10421;49.142;9.232;2022-10-14T04:36:26;13.60;;;6.70;;
20525;SDS011;10421;49.142;9.232;2022-10-14T04:38:52;14.10;;;6.40;;
20525;SDS011;10421;49.142;9.232;2022-10-14T04:41:19;12.67;;;6.50;;
20525;SDS011;10421;49.142;9.232;2022-10-14T04:43:46;13.07;;;6.87;;
20525;SDS011;10421;49.142;9.232;2022-10-14T04:46:12;12.10;;;5.93;;
20525;SDS011;10421;49.142;9.232;2022-10-14T04:48:41;14.50;;;8.13;;
20525;SDS011;10421;49.142;9.232;2022-10-14T04:51:07;10.10;;;5.47;;
20525;SDS011;10421;49.142;9.232;2022-10-14T04:53:34;8.07;;;5.70;;
20525;SDS011;10421;49.142;9.232;2022-10-14T04:56:01;9.33;;;5.83;;
20525;SDS011;10421;49.142;9.232;2022-10-14T04:58:28;12.33;;;5.83;;
20525;SDS011;10421;49.142;9.232;2022-10-14T05:00:54;12.23;;;5.87;;
20525;SDS011;10421;49.142;9.232;2022-10-14T05:03:21;10.70;;;6.27;;
20525;SDS011;10421;49.142;9.232;2022-10-14T05:05:50;14.57;;;7.23;;
20525;SDS011;10421;49.142;9.232;2022-10-14T05:08:16;12.57;;;6.80;;
20525;SDS011;10421;49.142;9.232;2022-10-14T05:10:43;15.43;;;7.73;;
20525;SDS011;10421;49.142;9.232;2022-10-14T05:13:10;11.50;;;6.17;;
20525;SDS011;10421;49.142;9.232;2022-10-14T05:15:37;14.70;;;6.80;;
20525;SDS011;10421;49.142;9.232;2022-10-14T05:18:03;11.23;;;5.87;;
20525;SDS011;10421;49.142;9.232;2022-10-14T05:20:30;14.70;;;7.17;;
20525;SDS011;10421;49.142;9.232;2022-10-14T05:22:58;11.43;;;5.87;;
20525;SDS011;10421;49.142;9.232;2022-10-14T05:25:25;14.67;;;6.33;;
20525;SDS011;10421;49.142;9.232;2022-10-14T05:27:52;14.87;;;6.77;;
20525;SDS011;10421;49.142;9.232;2022-10-14T05:30:18;12.90;;;6.40;;
20525;SDS011;10421;49.142;9.232;2022-10-14T05:32:45;13.80;;;7.00;;
20525;SDS011;10421;49.142;9.232;2022-10-14T05:35:12;14.87;;;7.50;;
20525;SDS011;10421;49.142;9.232;2022-10-14T05:37:39;15.33;;;7.10;;
20525;SDS011;10421;49.142;9.232;2022-10-14T05:40:08;12.40;;;6.30;;
20525;SDS011;10421;49.142;9.232;2022-10-14T05:42:36;10.87;;;5.60;;
20525;SDS011;10421;49.142;9.232;2022-10-14T05:45:03;14.57;;;7.20;;
20525;SDS011;10421;49.142;9.232;2022-10-14T05:47:31;15.83;;;7.00;;
20525;SDS011;10421;49.142;9.232;2022-10-14T05:49:58;12.30;;;5.93;;
20525;SDS011;10421;49.142;9.232;2022-10-14T05:52:27;18.93;;;6.70;;
20525;SDS011;10421;49.142;9.232;2022-10-14T05:54:56;12.33;;;4.83;;
20525;SDS011;10421;49.142;9.232;2022-10-14T05:57:24;9.90;;;5.33;;
20525;SDS011;10421;49.142;9.232;2022-10-14T05:59:52;9.70;;;5.43;;
20525;SDS011;10421;49.142;9.232;2022-10-14T06:02:19;10.93;;;5.00;;
20525;SDS011;10421;49.142;9.232;2022-10-14T06:04:46;13.40;;;6.13;;
20525;SDS011;10421;49.142;9.232;2022-10-14T06:07:12;9.63;;;5.47;;
20525;SDS011;10421;49.142;9.232;2022-10-14T06:09:39;9.00;;;5.60;;
20525;SDS011;10421;49.142;9.232;2022-10-14T06:12:06;10.27;;;5.57;;
20525;SDS011;10421;49.142;9.232;2022-10-14T06:14:35;17.73;;;6.13;;
20525;SDS011;10421;49.142;9.232;2022-10-14T06:17:02;9.03;;;4.80;;
20525;SDS011;10421;49.142;9.232;2022-10-14T06:19:29;11.17;;;4.50;;
20525;SDS011;10421;49.142;9.232;2022-10-14T06:21:56;8.87;;;5.40;;
20525;SDS011;10421;49.142;9.232;2022-10-14T06:24:23;11.80;;;5.77;;
20525;SDS011;10421;49.142;9.232;2022-10-14T06:26:50;10.77;;;5.40;;
20525;SDS011;10421;49.142;9.232;2022-10-14T06:29:16;6.30;;;4.40;;
20525;SDS011;10421;49.142;9.232;2022-10-14T06:31:44;16.60;;;6.00;;
20525;SDS011;10421;49.142;9.232;2022-10-14T06:34:11;11.03;;;5.70;;
20525;SDS011;10421;49.142;9.232;2022-10-14T06:36:38;10.07;;;5.47;;
20525;SDS011;10421;49.142;9.232;2022-10-14T06:39:05;9.07;;;5.17;;
20525;SDS011;10421;49.142;9.232;2022-10-14T06:41:31;9.73;;;5.17;;
20525;SDS011;10421;49.142;9.232;2022-10-14T06:43:58;8.97;;;5.40;;
20525;SDS011;10421;49.142;9.232;2022-10-14T06:46:25;7.77;;;5.20;;
20525;SDS011;10421;49.142;9.232;2022-10-14T06:48:53;11.73;;;5.60;;
20525;SDS011;10421;49.142;9.232;2022-10-14T06:51:20;13.03;;;6.20;;
20525;SDS011;10421;49.142;9.232;2022-10-14T06:53:47;10.20;;;5.60;;
20525;SDS011;10421;49.142;9.232;2022-10-14T06:56:13;12.83;;;5.60;;
20525;SDS011;10421;49.142;9.232;2022-10-14T06:58:40;13.23;;;6.20;;
20525;SDS011;10421;49.142;9.232;2022-10-14T07:01:07;11.37;;;5.50;;
20525;SDS011;10421;49.142;9.232;2022-10-14T07:03:34;12.00;;;5.50;;
20525;SDS011;10421;49.142;9.232;2022-10-14T07:06:04;11.70;;;6.07;;
20525;SDS011;10421;49.142;9.232;2022-10-14T07:08:32;10.60;;;5.40;;
20525;SDS011;10421;49.142;9.232;2022-10-14T07:10:59;9.10;;;5.53;;
20525;SDS011;10421;49.142;9.232;2022-10-14T07:13:26;9.40;;;5.07;;
20525;SDS011;10421;49.142;9.232;2022-10-14T07:15:54;8.40;;;4.90;;
20525;SDS011;10421;49.142;9.232;2022-10-14T07:18:20;11.70;;;5.30;;
20525;SDS011;10421;49.142;9.232;2022-10-14T07:20:47;9.60;;;4.83;;
20525;SDS011;10421;49.142;9.232;2022-10-14T07:23:15;9.53;;;5.37;;
20525;SDS011;10421;49.142;9.232;2022-10-14T07:25:42;6.40;;;4.23;;
20525;SDS011;10421;49.142;9.232;2022-10-14T07:28:09;10.47;;;5.07;;
20525;SDS011;10421;49.142;9.232;2022-10-14T07:30:36;12.83;;;5.47;;
20525;SDS011;10421;49.142;9.232;2022-10-14T07:33:03;11.47;;;5.40;;
20525;SDS011;10421;49.142;9.232;2022-10-14T07:35:30;10.63;;;5.20;;
20525;SDS011;10421;49.142;9.232;2022-10-14T07:37:57;9.03;;;4.73;;
20525;SDS011;10421;49.142;9.232;2022-10-14T07:40:26;8.43;;;4.47;;
20525;SDS011;10421;49.142;9.232;2022-10-14T07:42:53;11.20;;;5.40;;
20525;SDS011;10421;49.142;9.232;2022-10-14T07:45:20;12.77;;;6.10;;
20525;SDS011;10421;49.142;9.232;2022-10-14T07:47:47;10.20;;;4.83;;
20525;SDS011;10421;49.142;9.232;2022-10-14T07:50:15;10.57;;;5.23;;
20525;SDS011;10421;49.142;9.232;2022-10-14T07:52:42;6.30;;;4.47;;
20525;SDS011;10421;49.142;9.232;2022-10-14T07:55:09;7.70;;;4.23;;
20525;SDS011;10421;49.142;9.232;2022-10-14T07:57:38;8.77;;;3.90;;
20525;SDS011;10421;49.142;9.232;2022-10-14T08:00:05;9.10;;;4.37;;
20525;SDS011;10421;49.142;9.232;2022-10-14T08:02:32;8.30;;;4.20;;
20525;SDS011;10421;49.142;9.232;2022-10-14T08:05:00;10.60;;;5.00;;
20525;SDS011;10421;49.142;9.232;2022-10-14T08:07:27;9.07;;;4.47;;
20525;SDS011;10421;49.142;9.232;2022-10-14T08:09:55;7.07;;;4.03;;
20525;SDS011;10421;49.142;9.232;2022-10-14T08:12:21;8.63;;;4.20;;
20525;SDS011;10421;49.142;9.232;2022-10-14T08:14:49;6.87;;;4.17;;
20525;SDS011;10421;49.142;9.232;2022-10-14T08:17:19;9.90;;;4.30;;
20525;SDS011;10421;49.142;9.232;2022-10-14T08:19:48;12.00;;;5.57;;
20525;SDS011;10421;49.142;9.232;2022-10-14T08:22:15;7.93;;;3.80;;
20525;SDS011;10421;49.142;9.232;2022-10-14T08:24:41;7.13;;;3.80;;
20525;SDS011;10421;49.142;9.232;2022-10-14T08:27:08;10.10;;;4.40;;
20525;SDS011;10421;49.142;9.232;2022-10-14T08:29:35;7.17;;;4.10;;
20525;SDS011;10421;49.142;9.232;2022-10-14T08:32:03;7.20;;;3.93;;
20525;SDS011;10421;49.142;9.232;2022-10-14T08:34:30;12.30;;;5.50;;
20525;SDS011;10421;49.142;9.232;2022-10-14T08:36:57;8.33;;;4.40;;
20525;SDS011;10421;49.142;9.232;2022-10-14T08:39:24;13.50;;;5.53;;
20525;SDS011;10421;49.142;9.232;2022-10-14T08:42:01;5.53;;;3.97;;
20525;SDS011;10421;49.142;9.232;2022-10-14T08:44:56;7.60;;;3.90;;
20525;SDS011;10421;49.142;9.232;2022-10-14T08:47:34;13.10;;;5.83;;
20525;SDS011;10421;49.142;9.232;2022-10-14T08:50:05;11.60;;;4.80;;
20525;SDS011;10421;49.142;9.232;2022-10-14T08:52:45;11.43;;;5.57;;
20525;SDS011;10421;49.142;9.232;2022-10-14T08:55:20;8.20;;;4.70;;
20525;SDS011;10421;49.142;9.232;2022-10-14T08:57:53;7.70;;;4.20;;
20525;SDS011;10421;49.142;9.232;2022-10-14T09:00:23;12.20;;;5.33;;
20525;SDS011;10421;49.142;9.232;2022-10-14T09:02:51;12.73;;;4.97;;
20525;SDS011;10421;49.142;9.232;2022-10-14T09:05:19;6.63;;;4.00;;
20525;SDS011;10421;49.142;9.232;2022-10-14T09:07:47;7.90;;;3.90;;
20525;SDS011;10421;49.142;9.232;2022-10-14T09:10:17;11.53;;;4.93;;
20525;SDS011;10421;49.142;9.232;2022-10-14T09:12:51;16.07;;;5.70;;
20525;SDS011;10421;49.142;9.232;2022-10-14T09:15:21;14.33;;;5.80;;
20525;SDS011;10421;49.142;9.232;2022-10-14T09:18:00;9.80;;;4.50;;
20525;SDS011;10421;49.142;9.232;2022-10-14T09:20:30;9.30;;;4.20;;
20525;SDS011;10421;49.142;9.232;2022-10-14T09:23:01;9.97;;;4.83;;
20525;SDS011;10421;49.142;9.232;2022-10-14T09:25:37;8.83;;;4.67;;
20525;SDS011;10421;49.142;9.232;2022-10-14T09:28:09;9.03;;;4.07;;
20525;SDS011;10421;49.142;9.232;2022-10-14T09:30:37;12.07;;;4.53;;
20525;SDS011;10421;49.142;9.232;2022-10-14T09:33:05;12.53;;;5.50;;
20525;SDS011;10421;49.142;9.232;2022-10-14T09:35:39;12.10;;;4.43;;
20525;SDS011;10421;49.142;9.232;2022-10-14T09:38:07;8.30;;;4.03;;
20525;SDS011;10421;49.142;9.232;2022-10-14T09:40:36;8.67;;;4.57;;
20525;SDS011;10421;49.142;9.232;2022-10-14T09:43:10;6.80;;;4.00;;
20525;SDS011;10421;49.142;9.232;2022-10-14T09:45:48;8.63;;;4.63;;
20525;SDS011;10421;49.142;9.232;2022-10-14T09:48:19;10.17;;;5.10;;
20525;SDS011;10421;49.142;9.232;2022-10-14T09:50:58;8.27;;;4.60;;
20525;SDS011;10421;49.142;9.232;2022-10-14T09:53:27;9.73;;;4.83;;
20525;SDS011;10421;49.142;9.232;2022-10-14T09:55:57;9.13;;;4.77;;
20525;SDS011;10421;49.142;9.232;2022-10-14T09:58:27;9.57;;;5.00;;
20525;SDS011;10421;49.142;9.232;2022-10-14T10:00:57;12.20;;;5.30;;
20525;SDS011;10421;49.142;9.232;2022-10-14T10:03:27;8.97;;;4.40;;
20525;SDS011;10421;49.142;9.232;2022-10-14T10:06:04;7.87;;;4.00;;
20525;SDS011;10421;49.142;9.232;2022-10-14T10:08:32;11.00;;;5.00;;
20525;SDS011;10421;49.142;9.232;2022-10-14T10:11:00;10.83;;;5.07;;
20525;SDS011;10421;49.142;9.232;2022-10-14T10:13:36;9.23;;;4.93;;
20525;SDS011;10421;49.142;9.232;2022-10-14T10:16:06;13.93;;;5.57;;
20525;SDS011;10421;49.142;9.232;2022-10-14T10:18:45;14.53;;;6.10;;
20525;SDS011;10421;49.142;9.232;2022-10-14T10:21:14;13.23;;;5.07;;
20525;SDS011;10421;49.142;9.232;2022-10-14T10:23:54;9.30;;;4.90;;
20525;SDS011;10421;49.142;9.232;2022-10-14T10:26:23;13.03;;;6.03;;
20525;SDS011;10421;49.142;9.232;2022-10-14T10:28:52;11.07;;;5.77;;
20525;SDS011;10421;49.142;9.232;2022-10-14T10:31:27;9.60;;;5.00;;
20525;SDS011;10421;49.142;9.232;2022-10-14T10:34:18;12.93;;;5.40;;
20525;SDS011;10421;49.142;9.232;2022-10-14T10:36:59;9.40;;;5.10;;
20525;SDS011;10421;49.142;9.232;2022-10-14T10:39:34;17.73;;;6.90;;
20525;SDS011;10421;49.142;9.232;2022-10-14T10:42:08;12.00;;;5.13;;
20525;SDS011;10421;49.142;9.232;2022-10-14T10:44:50;9.80;;;5.00;;
20525;SDS011;10421;49.142;9.232;2022-10-14T10:47:31;11.80;;;5.33;;
20525;SDS011;10421;49.142;9.232;2022-10-14T10:50:19;13.63;;;5.50;;
20525;SDS011;10421;49.142;9.232;2022-10-14T10:52:56;13.13;;;5.37;;
20525;SDS011;10421;49.142;9.232;2022-10-14T10:55:48;8.57;;;5.00;;
20525;SDS011;10421;49.142;9.232;2022-10-14T10:58:23;12.70;;;5.73;;
20525;SDS011;10421;49.142;9.232;2022-10-14T11:01:06;11.17;;;5.93;;
20525;SDS011;10421;49.142;9.232;2022-10-14T11:03:43;13.57;;;5.40;;
20525;SDS011;10421;49.142;9.232;2022-10-14T11:06:23;10.17;;;5.30;;
20525;SDS011;10421;49.142;9.232;2022-10-14T11:09:14;13.83;;;6.30;;
20525;SDS011;10421;49.142;9.232;2022-10-14T11:12:06;12.80;;;5.40;;
20525;SDS011;10421;49.142;9.232;2022-10-14T11:14:47;10.23;;;5.73;;
20525;SDS011;10421;49.142;9.232;2022-10-14T11:17:32;13.20;;;5.73;;
20525;SDS011;10421;49.142;9.232;2022-10-14T11:20:07;15.87;;;6.63;;
20525;SDS011;10421;49.142;9.232;2022-10-14T11:22:54;15.27;;;5.70;;
20525;SDS011;10421;49.142;9.232;2022-10-14T11:25:38;8.53;;;4.90;;
20525;SDS011;10421;49.142;9.232;2022-10-14T11:28:14;13.33;;;5.77;;
20525;SDS011;10421;49.142;9.232;2022-10-14T11:30:48;12.03;;;4.87;;
20525;SDS011;10421;49.142;9.232;2022-10-14T11:33:32;20.13;;;6.17;;
20525;SDS011;10421;49.142;9.232;2022-10-14T11:36:13;12.87;;;5.80;;
20525;SDS011;10421;49.142;9.232;2022-10-14T11:38:52;13.23;;;5.37;;
20525;SDS011;10421;49.142;9.232;2022-10-14T11:41:32;15.37;;;6.23;;
20525;SDS011;10421;49.142;9.232;2022-10-14T11:44:10;12.83;;;5.33;;
20525;SDS011;10421;49.142;9.232;2022-10-14T11:46:45;11.80;;;5.70;;
20525;SDS011;10421;49.142;9.232;2022-10-14T11:49:17;9.40;;;5.13;;
20525;SDS011;10421;49.142;9.232;2022-10-14T11:51:48;11.03;;;5.60;;
20525;SDS011;10421;49.142;9.232;2022-10-14T11:54:23;13.70;;;5.60;;
20525;SDS011;10421;49.142;9.232;2022-10-14T11:56:58;9.80;;;4.93;;
20525;SDS011;10421;49.142;9.232;2022-10-14T11:59:40;8.20;;;4.90;;
20525;SDS011;10421;49.142;9.232;2022-10-14T12:02:18;7.97;;;4.83;;
20525;SDS011;10421;49.142;9.232;2022-10-14T12:04:52;13.53;;;6.17;;
20525;SDS011;10421;49.142;9.232;2022-10-14T12:07:24;16.50;;;6.80;;
20525;SDS011;10421;49.142;9.232;2022-10-14T12:09:56;14.17;;;6.57;;
20525;SDS011;10421;49.142;9.232;2022-10-14T12:12:27;11.40;;;5.60;;
20525;SDS011;10421;49.142;9.232;2022-10-14T12:14:55;10.87;;;5.40;;
20525;SDS011;10421;49.142;9.232;2022-10-14T12:17:26;9.70;;;5.00;;
20525;SDS011;10421;49.142;9.232;2022-10-14T12:20:00;10.10;;;5.70;;
20525;SDS011;10421;49.142;9.232;2022-10-14T12:22:32;9.17;;;5.17;;
20525;SDS011;10421;49.142;9.232;2022-10-14T12:25:02;12.07;;;5.70;;
20525;SDS011;10421;49.142;9.232;2022-10-14T12:27:32;13.80;;;6.20;;
20525;SDS011;10421;49.142;9.232;2022-10-14T12:29:59;11.17;;;5.73;;
20525;SDS011;10421;49.142;9.232;2022-10-14T12:32:28;11.57;;;5.60;;
20525;SDS011;10421;49.142;9.232;2022-10-14T12:34:56;14.50;;;9.03;;
20525;SDS011;10421;49.142;9.232;2022-10-14T12:40:23;9.80;;;5.60;;
20525;SDS011;10421;49.142;9.232;2022-10-14T12:42:54;11.80;;;5.63;;
20525;SDS011;10421;49.142;9.232;2022-10-14T12:45:26;10.23;;;5.83;;
20525;SDS011;10421;49.142;9.232;2022-10-14T12:48:02;13.03;;;6.20;;
20525;SDS011;10421;49.142;9.232;2022-10-14T12:50:39;12.03;;;5.93;;
20525;SDS011;10421;49.142;9.232;2022-10-14T12:53:23;13.40;;;6.33;;
20525;SDS011;10421;49.142;9.232;2022-10-14T12:55:53;17.77;;;7.07;;
20525;SDS011;10421;49.142;9.232;2022-10-14T12:58:25;13.33;;;5.80;;
20525;SDS011;10421;49.142;9.232;2022-10-14T13:00:56;7.57;;;4.50;;
20525;SDS011;10421;49.142;9.232;2022-10-14T13:03:27;12.40;;;5.47;;
20525;SDS011;10421;49.142;9.232;2022-10-14T13:06:25;13.23;;;4.97;;
20525;SDS011;10421;49.142;9.232;2022-10-14T13:12:11;8.57;;;5.17;;
20525;SDS011;10421;49.142;9.232;2022-10-14T13:18:11;5.70;;;4.03;;
20525;SDS011;10421;49.142;9.232;2022-10-14T13:20:59;8.17;;;3.57;;
20525;SDS011;10421;49.142;9.232;2022-10-14T13:23:28;8.33;;;4.40;;
20525;SDS011;10421;49.142;9.232;2022-10-14T13:26:19;10.13;;;4.63;;
20525;SDS011;10421;49.142;9.232;2022-10-14T13:28:53;13.30;;;6.00;;
20525;SDS011;10421;49.142;9.232;2022-10-14T13:31:32;9.37;;;4.27;;
20525;SDS011;10421;49.142;9.232;2022-10-14T13:34:09;16.43;;;6.73;;
20525;SDS011;10421;49.142;9.232;2022-10-14T13:36:49;12.30;;;5.50;;
20525;SDS011;10421;49.142;9.232;2022-10-14T13:39:26;10.50;;;5.80;;
20525;SDS011;10421;49.142;9.232;2022-10-14T13:41:56;9.27;;;5.30;;
20525;SDS011;10421;49.142;9.232;2022-10-14T13:44:25;7.27;;;4.93;;
20525;SDS011;10421;49.142;9.232;2022-10-14T13:46:52;10.43;;;5.20;;
20525;SDS011;10421;49.142;9.232;2022-10-14T13:49:20;17.00;;;7.03;;
20525;SDS011;10421;49.142;9.232;2022-10-14T13:51:54;16.40;;;6.97;;
20525;SDS011;10421;49.142;9.232;2022-10-14T13:54:23;10.00;;;5.23;;
20525;SDS011;10421;49.142;9.232;2022-10-14T13:56:54;11.00;;;5.53;;
20525;SDS011;10421;49.142;9.232;2022-10-14T13:59:23;13.13;;;5.80;;
20525;SDS011;10421;49.142;9.232;2022-10-14T14:01:53;8.50;;;4.57;;
20525;SDS011;10421;49.142;9.232;2022-10-14T14:04:22;12.20;;;6.20;;
20525;SDS011;10421;49.142;9.232;2022-10-14T14:06:51;9.00;;;4.87;;
20525;SDS011;10421;49.142;9.232;2022-10-14T14:09:20;7.80;;;4.90;;
20525;SDS011;10421;49.142;9.232;2022-10-14T14:11:50;10.97;;;5.60;;
20525;SDS011;10421;49.142;9.232;2022-10-14T14:14:20;11.10;;;4.40;;
20525;SDS011;10421;49.142;9.232;2022-10-14T14:16:51;14.17;;;5.70;;
20525;SDS011;10421;49.142;9.232;2022-10-14T14:19:20;12.23;;;5.57;;
20525;SDS011;10421;49.142;9.232;2022-10-14T14:21:51;9.23;;;5.70;;
20525;SDS011;10421;49.142;9.232;2022-10-14T14:24:19;14.80;;;6.17;;
20525;SDS011;10421;49.142;9.232;2022-10-14T14:26:50;13.63;;;6.97;;
20525;SDS011;10421;49.142;9.232;2022-10-14T14:29:19;16.67;;;9.00;;
20525;SDS011;10421;49.142;9.232;2022-10-14T14:31:51;16.13;;;7.80;;
20525;SDS011;10421;49.142;9.232;2022-10-14T14:34:19;12.87;;;7.53;;
20525;SDS011;10421;49.142;9.232;2022-10-14T14:36:47;16.83;;;8.27;;
20525;SDS011;10421;49.142;9.232;2022-10-14T14:39:17;11.00;;;6.37;;
20525;SDS011;10421;49.142;9.232;2022-10-14T14:41:50;16.60;;;7.30;;
20525;SDS011;10421;49.142;9.232;2022-10-14T14:44:19;13.90;;;7.00;;
20525;SDS011;10421;49.142;9.232;2022-10-14T14:46:48;8.80;;;4.77;;
20525;SDS011;10421;49.142;9.232;2022-10-14T14:49:21;13.17;;;6.30;;
20525;SDS011;10421;49.142;9.232;2022-10-14T14:51:52;12.30;;;6.13;;
20525;SDS011;10421;49.142;9.232;2022-10-14T14:54:21;18.80;;;7.77;;
20525;SDS011;10421;49.142;9.232;2022-10-14T14:56:49;11.37;;;5.90;;
20525;SDS011;10421;49.142;9.232;2022-10-14T14:59:20;14.37;;;6.73;;
20525;SDS011;10421;49.142;9.232;2022-10-14T15:01:54;13.50;;;6.97;;
20525;SDS011;10421;49.142;9.232;2022-10-14T15:04:23;14.80;;;7.20;;
20525;SDS011;10421;49.142;9.232;2022-10-14T15:06:51;12.93;;;7.33;;
20525;SDS011;10421;49.142;9.232;2022-10-14T15:09:27;16.33;;;7.57;;
20525;SDS011;10421;49.142;9.232;2022-10-14T15:12:00;10.03;;;5.80;;
20525;SDS011;10421;49.142;9.232;2022-10-14T15:14:33;10.93;;;6.10;;